Time;durP1;ratioP1;P1;durP2;ratioP2;P2;SDS_P1;SDS_P2;PMS_P1;PMS_P2;Temp;Humidity;BMP_temperature;BMP_pressure;BME280_temperature;BME280_humidity;BME280_pressure;Samples;Min_cycle;Max_cycle;Signal;HPM_P1;HPM_P2
2023/01/05 00:23:29;;;;;;;;;0.00;0.00;;;;;11.02;100.00;101351.69;4782643;29;45415;-94
2023/01/05 00:29:52;;;;;;;;;;;;;;;;;;;;;
2023/01/05 00:35:39;;;;;;;;;0.00;0.00;;;;;11.14;100.00;101408.84;4833593;29;45619;-94
2023/01/05 00:38:55;;;;;;;;;0.00;0.00;;;;;10.99;100.00;101374.59;4822757;29;45207;-93
2023/01/05 09:06:08;;;;;;;;;0.00;0.00;;;;;12.66;100.00;101712.06;1484960;23;46208;-91
2023/01/05 09:09:00;;;;;;;;;0.00;0.00;;;;;12.45;100.00;101674.28;4881788;29;46232;-93
2023/01/05 09:11:51;;;;;;;;;1.25;1.25;;;;;11.28;100.00;101495.19;4884091;29;47687;-93
2023/01/05 09:14:33;;;;;;;;;1.00;1.00;;;;;12.78;100.00;101719.88;4880814;29;45491;-92
2023/01/05 09:17:45;;;;;;;;;1.00;1.00;;;;;12.43;100.00;101644.25;4878993;29;45376;-92
2023/01/05 09:23:45;;;;;;;;;0.00;0.00;;;;;11.63;100.00;101508.13;4866440;29;46564;-92
2023/01/05 09:26:54;;;;;;;;;;;;;;;;;;;;;
2023/01/05 09:29:56;;;;;;;;;0.00;0.00;;;;;12.97;100.00;101716.13;4853475;29;67949;-91
2023/01/05 09:32:39;;;;;;;;;1.00;1.00;;;;;11.67;100.00;101503.66;4841170;29;45280;-91
2023/01/05 09:39:03;;;;;;;;;;;;;;;;;;;;;
2023/01/05 10:24:42;;;;;;;;;0.75;0.75;;;;;13.73;100.00;101743.50;510325;26;45187;-88
2023/01/05 10:27:29;;;;;;;;;1.00;1.00;;;;;12.35;100.00;101518.88;4903619;28;45512;-89
2023/01/05 10:30:23;;;;;;;;;1.00;1.00;;;;;12.76;100.00;101589.91;4883943;28;48286;-89
2023/01/05 13:08:14;;;;;;;;;0.50;0.50;;;;;13.77;100.00;101615.00;1865737;23;46189;-92
2023/01/05 13:11:17;;;;;;;;;0.00;0.00;;;;;13.05;100.00;101478.97;4893704;29;44762;-94
2023/01/05 13:13:51;;;;;;;;;1.00;1.00;;;;;12.21;100.00;101352.94;4877665;29;45504;-95
2023/01/05 13:16:29;;;;;;;;;0.25;0.25;;;;;13.79;100.00;101602.59;4874254;29;44841;-93
2023/01/05 13:19:28;;;;;;;;;0.00;0.00;;;;;13.28;100.00;101507.78;4878692;29;46744;-95
2023/01/05 13:22:04;;;;;;;;;0.00;0.00;;;;;13.18;100.00;101485.84;4878187;29;45372;-93
2023/01/05 13:24:51;;;;;;;;;0.75;0.75;;;;;12.93;100.00;101462.31;4870677;29;45400;-94
2023/01/05 13:27:19;;;;;;;;;0.75;0.75;;;;;13.90;100.00;101607.72;4886212;29;45497;-96
2023/01/05 13:29:53;;;;;;;;;2.00;1.00;;;;;13.90;100.00;101608.59;4873122;29;46295;-94
2023/01/05 13:32:50;;;;;;;;;0.25;0.25;;;;;12.96;100.00;101427.78;4866994;29;45473;-95
2023/01/05 13:35:47;;;;;;;;;1.00;1.00;;;;;13.83;100.00;101575.06;4879734;29;45048;-94
2023/01/05 13:39:10;;;;;;;;;0.00;0.00;;;;;12.97;100.00;101450.78;4901542;29;45149;-94
2023/01/05 13:45:40;;;;;;;;;2.00;1.00;;;;;13.92;100.00;101606.78;4822519;29;45268;-94
2023/01/05 13:48:34;;;;;;;;;0.50;0.50;;;;;13.93;100.00;101589.06;4730827;30;45986;-93
2023/01/05 13:51:10;;;;;;;;;0.00;0.00;;;;;13.92;100.00;101585.50;4732263;29;45664;-94
2023/01/05 13:53:40;;;;;;;;;0.00;0.00;;;;;13.25;100.00;101476.84;4724653;30;46882;-94
2023/01/05 13:56:30;;;;;;;;;0.00;0.00;;;;;13.90;100.00;101591.78;4735661;29;45299;-93
2023/01/05 13:59:25;;;;;;;;;2.25;0.50;;;;;12.11;100.00;101290.34;4737301;30;45386;-93
2023/01/05 14:01:54;;;;;;;;;0.25;0.25;;;;;12.97;100.00;101450.78;4727009;30;45485;-93
2023/01/05 14:04:24;;;;;;;;;0.50;0.50;;;;;13.81;100.00;101599.00;4736078;30;46360;-93
2023/01/05 14:07:05;;;;;;;;;0.00;0.00;;;;;12.45;100.00;101366.72;4733600;30;45489;-93
2023/01/05 14:09:54;;;;;;;;;0.00;0.00;;;;;13.15;100.00;101480.59;4734731;30;45298;-93
2023/01/05 14:12:21;;;;;;;;;0.00;0.00;;;;;13.41;100.00;101529.75;4732377;30;45459;-94
2023/01/05 14:15:31;;;;;;;;;0.00;0.00;;;;;12.76;100.00;101413.97;4753981;29;47529;-92
2023/01/05 14:18:02;;;;;;;;;1.00;1.00;;;;;13.77;100.00;101585.78;4748741;29;44858;-94
2023/01/05 14:20:52;;;;;;;;;3.00;1.00;;;;;13.12;100.00;101468.22;4766681;29;45382;-93
2023/01/05 14:23:25;;;;;;;;;0.00;0.00;;;;;13.75;100.00;101588.47;4748473;30;45378;-94
2023/01/05 14:26:03;;;;;;;;;1.00;1.00;;;;;13.71;100.00;101583.25;4725970;30;46766;-94
2023/01/05 14:28:34;;;;;;;;;0.00;0.00;;;;;13.67;100.00;101585.09;4729337;30;45231;-94
2023/01/05 14:31:20;;;;;;;;;1.00;1.00;;;;;13.61;100.00;101575.44;4752320;29;45288;-94
2023/01/05 14:34:02;;;;;;;;;1.50;1.00;;;;;13.33;100.00;101536.06;4740664;30;45313;-94
2023/01/05 14:36:36;;;;;;;;;0.50;0.50;;;;;13.58;100.00;101572.81;4726961;30;47605;-93
2023/01/05 14:39:20;;;;;;;;;1.00;1.00;;;;;12.13;100.00;101341.56;4725578;30;45773;-94
2023/01/05 14:45:21;;;;;;;;;0.25;0.25;;;;;11.80;100.00;101303.16;4742135;29;45277;-94
2023/01/05 14:48:01;;;;;;;;;1.00;1.00;;;;;12.47;100.00;101433.84;4729894;30;46727;-94
2023/01/05 14:50:44;;;;;;;;;2.00;1.00;;;;;12.60;100.00;101461.97;4746742;30;44819;-93
2023/01/05 14:53:19;;;;;;;;;1.00;0.00;;;;;13.36;100.00;101580.28;4790287;29;45324;-94
2023/01/05 14:55:55;;;;;;;;;2.00;1.00;;;;;12.73;100.00;101453.81;4800512;29;44900;-93
2023/01/05 14:58:40;;;;;;;;;1.50;1.00;;;;;13.47;100.00;101582.75;4801034;29;48049;-95
2023/01/05 15:01:44;;;;;;;;;1.00;1.00;;;;;11.68;100.00;101278.56;4853760;29;45289;-94
2023/01/05 15:08:06;;;;;;;;;1.25;1.25;;;;;13.51;100.00;101576.47;4868780;29;45450;-92
2023/01/05 15:11:18;;;;;;;;;;;;;;;;;;;;;
2023/01/05 15:14:33;;;;;;;;;0.00;0.00;;;;;12.47;100.00;101407.34;4890109;29;73437;-93
2023/01/05 15:17:30;;;;;;;;;0.00;0.00;;;;;13.45;100.00;101573.91;4889050;29;45160;-93
2023/01/05 15:20:28;;;;;;;;;0.00;0.00;;;;;13.42;100.00;101580.19;4883793;29;45268;-92
2023/01/05 15:23:38;;;;;;;;;0.75;0.25;;;;;13.39;100.00;101568.72;4874975;29;46640;-94
2023/01/05 15:29:30;;;;;;;;;1.00;1.00;;;;;13.33;100.00;101573.22;4877750;29;45349;-92
2023/01/05 15:32:30;;;;;;;;;;;;;;;;;;;;;
2023/01/05 15:35:19;;;;;;;;;0.00;0.00;;;;;12.25;100.00;101398.81;4842299;29;74504;-94
2023/01/05 15:37:52;;;;;;;;;3.25;1.00;;;;;13.25;100.00;101584.81;4877998;29;44641;-94
2023/01/05 15:41:07;;;;;;;;;1.25;1.25;;;;;13.21;100.00;101591.97;4878229;29;45322;-94
2023/01/05 15:43:39;;;;;;;;;0.00;0.00;;;;;11.79;100.00;101346.41;4860539;29;44873;-93
2023/01/05 15:46:16;;;;;;;;;0.00;0.00;;;;;12.15;100.00;101421.06;4855439;29;46316;-95
2023/01/05 15:49:31;;;;;;;;;0.00;0.00;;;;;12.25;100.00;101428.84;4878195;29;45424;-95
2023/01/05 15:59:05;;;;;;;;;0.50;0.50;;;;;11.53;100.00;101326.44;4824725;29;45383;-93
2023/01/05 16:08:35;;;;;;;;;1.00;1.00;;;;;12.88;100.00;101578.28;4816117;29;45243;-94
2023/01/05 16:12:02;;;;;;;;;1.25;0.50;;;;;12.33;100.00;101491.47;4811379;29;47695;-94
2023/01/05 16:18:19;;;;;;;;;0.75;0.75;;;;;12.39;100.00;101541.75;4830287;29;44807;-95
2023/01/05 16:21:35;;;;;;;;;1.00;0.00;;;;;10.84;100.00;101267.19;4818241;29;45463;-94
2023/01/05 16:24:47;;;;;;;;;0.00;0.00;;;;;12.54;100.00;101570.75;4797229;29;46813;-92
2023/01/05 16:31:37;;;;;;;;;0.00;0.00;;;;;12.04;100.00;101519.19;4807834;29;45361;-94
2023/01/05 16:41:19;;;;;;;;;;;;;;;;;;;;;
2023/01/05 16:45:18;;;;;;;;;;;;;;;;;;;;;
2023/01/05 17:01:08;;;;;;;;;0.75;0.75;;;;;12.15;100.00;101575.63;4902859;29;45436;-94
2023/01/05 17:10:53;;;;;;;;;1.00;1.00;;;;;11.97;100.00;101549.31;4792868;29;45445;-94
2023/01/05 17:13:58;;;;;;;;;1.25;1.25;;;;;10.70;100.00;101336.06;4793424;29;45530;-94
2023/01/05 17:19:56;;;;;;;;;1.00;1.00;;;;;10.46;100.00;101306.31;4821402;29;44654;-93
2023/01/05 17:22:50;;;;;;;;;1.50;1.50;;;;;12.16;100.00;101577.41;4818355;29;45320;-94
2023/01/05 17:25:24;;;;;;;;;4.00;1.50;;;;;11.38;100.00;101439.50;4817135;29;45332;-94
2023/01/05 17:28:22;;;;;;;;;1.00;1.00;;;;;10.36;100.00;101264.13;4814376;29;47886;-94
2023/01/05 17:34:45;;;;;;;;;0.00;0.00;;;;;10.72;100.00;101329.03;4817388;29;45319;-95
2023/01/05 17:49:04;;;;;;;;;;;;;;;;;;;;;
2023/01/05 17:52:02;;;;;;;;;1.25;1.00;;;;;11.10;100.00;101428.31;4914807;29;46754;-95
2023/01/05 18:01:18;;;;;;;;;3.00;2.00;;;;;11.29;100.00;101459.91;4832519;29;45289;-96
2023/01/05 18:03:52;;;;;;;;;1.25;1.00;;;;;11.82;100.00;101579.47;4839412;29;45512;-96
2023/01/05 18:06:22;;;;;;;;;1.00;1.00;;;;;11.81;100.00;101556.50;4846738;29;45509;-95
2023/01/05 18:08:48;;;;;;;;;1.50;1.50;;;;;10.72;100.00;101376.63;4843113;29;45474;-96
2023/01/05 18:11:18;;;;;;;;;3.25;3.25;;;;;11.51;100.00;101530.28;4826348;29;44833;-96
2023/01/05 18:13:53;;;;;;;;;4.75;2.00;;;;;10.54;100.00;101384.69;4826881;29;47137;-95
2023/01/05 18:16:26;;;;;;;;;2.25;2.25;;;;;10.32;100.00;101331.94;4803792;29;45379;-94
2023/01/05 18:18:58;;;;;;;;;1.00;1.00;;;;;11.28;100.00;101492.53;4836769;29;45560;-94
2023/01/05 18:27:47;;;;;;;;;1.00;1.00;;;;;9.94;100.00;101272.31;4836876;29;45285;-95
2023/01/05 18:30:30;;;;;;;;;3.00;3.00;;;;;10.88;100.00;101424.09;4841960;29;45397;-96
2023/01/05 18:33:13;;;;;;;;;1.50;1.50;;;;;10.96;100.00;101452.25;4841365;29;45714;-96
2023/01/05 18:36:12;;;;;;;;;3.00;2.25;;;;;10.95;100.00;101449.63;4917146;28;45285;-95
2023/01/05 18:39:15;;;;;;;;;2.00;2.00;;;;;10.68;100.00;101382.81;4901357;29;45425;-95
2023/01/05 18:48:31;;;;;;;;;4.00;3.00;;;;;10.10;100.00;101321.50;4886948;29;45575;-95
2023/01/05 18:51:07;;;;;;;;;2.25;2.25;;;;;11.10;100.00;101475.94;4868795;29;45283;-96
2023/01/05 18:53:38;;;;;;;;;2.25;1.00;;;;;10.09;100.00;101301.25;4868566;29;45309;-94
2023/01/05 18:56:26;;;;;;;;;1.75;1.75;;;;;11.50;100.00;101535.59;4869832;29;44894;-93
2023/01/05 18:59:11;;;;;;;;;1.00;1.00;;;;;11.08;100.00;101477.69;4877566;29;45219;-95
2023/01/05 19:01:49;;;;;;;;;0.75;0.75;;;;;9.49;100.00;101216.25;4856302;29;45369;-95
2023/01/05 19:05:00;;;;;;;;;3.50;3.00;;;;;10.69;100.00;101418.94;4841159;29;45596;-96
2023/01/05 19:07:50;;;;;;;;;;;;;;;;;;;;;
2023/01/05 19:10:21;;;;;;;;;1.00;1.00;;;;;11.45;100.00;101550.63;4879205;29;74360;-96
2023/01/05 19:13:15;;;;;;;;;1.00;1.00;;;;;11.44;100.00;101536.53;4858063;29;45309;-95
2023/01/05 19:16:31;;;;;;;;;;;;;;;;;;;;;
2023/01/05 19:19:24;;;;;;;;;1.00;1.00;;;;;10.64;100.00;101410.16;4763040;29;70697;-91
2023/01/05 19:22:55;;;;;;;;;1.00;1.00;;;;;9.98;100.00;101308.38;4743900;29;47427;-91
